NWS Home NWS Lubbock West Texas Mesonet Latest Conditions as of 0814 PM, Wed Aug 23, 2017

Latest   N   C   S   Daily Sum   3hrΔ   24hrΔ   Soil Data 
Site Map   24hr Precip   72hr Precip   Google Plot


Station Time of Last Temp Dew Pt. RH Wind Direction Wind Speed Wind Gust Max Wind Max Temp Min Temp Max RH Min RH Altimeter 1HR Rain Today's Rain Solar Rad
Abernathy 5ENE  08:10 PM 72 66 87% E56 15 mph 81° @ 0530 PM 80 64 100 62 30.09" 0 0 14
Aiken 3WSW  08:10 PM 72 69 93% E56 14 mph 96° @ 1256 PM 79 62 100 62 30.09" 0 0.01 11
Amarillo 15NNW   08:10 PM 75 64 69% SE78 16 mph 101° @ 0346 PM 82 64 100 55 30.07" 0 0 8
Amarillo 7SSE  08:10 PM 73 63 72% SE910 15 mph 106° @ 0827 AM 80 65 99 55 30.10" 0 0 11
Amarillo 9NNE  08:10 PM 74 65 74% SE89 15 mph 130° @ 0709 PM 81 65 100 56 30.07" 0 0 7
Amherst 1NE  08:10 PM 73 65 81% E78 15 mph 78° @ 0535 PM 80 63 100 62 30.09" 0 0.01 17
Andrews 2E  08:10 PM 80 63 57% E914 19 mph 82° @ 0740 PM 88 65 93 40 30.04" 0 0.08 16
Anton 6SSW  08:10 PM 74 68 85% E56 17 mph 81° @ 0615 PM 82 62 100 65 30.07" 0 0.01 15
Aspermont 3NE  08:10 PM 81 64 57% NE46 18 mph 47° @ 0555 PM 89 66 97 47 29.98" 0 0 4
Big Bend NP - Persimmon Gap  08:10 PM 83 66 55% NE1215 31 mph 125° @ 0721 PM 95 76 57 28 29.97" 0 0 11
Big Lake 1WNW  08:10 PM 82 65 55% E810 31 mph 30° @ 1232 AM 87 68 92 47 30.01" 0 0 3
Bootleg 11WNW  08:10 PM 72 64 75% SE910 19 mph 111° @ 0444 PM 80 61 97 55 30.15" 0 0 12
Boys Ranch 1WSW  08:10 PM 77 63 61% SE44 16 mph 87° @ 0358 PM 83 63 98 51 30.07" 0 0 9
Brownfield 2S  08:10 PM 78 65 66% E1014 19 mph 82° @ 0700 PM 85 66 94 44 30.06" 0 0.02 13
Canadian 6E  08:10 PM 75 65 71% SE77 13 mph 62° @ 0529 AM 83 64 97 54 30.02" 0 0 6
Caprock Canyons State Park  08:10 PM 75 66 72% E44 16 mph 79° @ 0602 PM 83 65 99 57 30.05" 0 0 5
Childress 2NNE  08:10 PM 77 66 73% NE79 17 mph 59° @ 0500 PM 84 66 100 60 30.01" 0 0.01 5
Clarendon 2WSW  08:10 PM 74 65 75% E45 17 mph 55° @ 0405 AM 80 66 95 62 30.05" 0 0 7
Claude 12SW  08:10 PM 72 64 75% SE67 14 mph 133° @ 0600 PM 81 66 100 57 30.09" 0 0 8
Clyde 2WNW  08:10 PM 79 69 72% E55 18 mph 52° @ 0324 AM 85 71 95 60 30.00" 0 0.05 3
Colorado City 5NW  08:10 PM 79 69 71% E810 20 mph 77° @ 0438 PM 87 68 95 50 30.01" 0 0 4
Coyanosa 2N  08:10 PM 85 66 53% E810 21 mph 21° @ 1210 AM 92 68 100 41 29.98" 0 0 15
Crowell 1E  08:10 PM 80 72 76% NE66 15 mph 26° @ 0925 AM 86 70 98 58 29.98" 0 0 4
Dell City  08:10 PM 74 67 79% NW66 25 mph 116° @ 0358 PM 91 69 85 39 30.05" 0 0.05 8
Denver City 7WNW  08:10 PM 77 59 56% E89 26 mph 41° @ 0405 PM 84 63 96 42 30.07" 0 0 15
Dimmitt 2NE  08:10 PM 72 65 80% SE79 15 mph 114° @ 0505 PM 78 62 99 65 30.11" 0 0.01 23
Dora NM 2SW  08:10 PM 73 63 73% SE1013 18 mph 99° @ 0445 PM 82 63 100 56 30.13" 0 0 26
Dozier 3W  08:10 PM 76 68 75% E56 15 mph 93° @ 0629 PM 83 67 99 60 30.04" 0 0 6
Floydada 2NNE  08:10 PM 71 64 80% E55 15 mph 69° @ 0515 PM 80 63 100 56 30.07" 0 0.02 8
Fluvanna 3WNW  08:10 PM 78 63 62% E811 23 mph 45° @ 0525 PM 84 66 92 48 30.02" 0 0.01 5
Fort Chadbourne  08:10 PM 76 70 81% NE23 25 mph 83° @ 0644 PM 88 69 97 49 29.99" 0 0.12 3
Fort Lancaster  08:10 PM 83 68 61% SE1113 34 mph 5° @ 0133 AM 92 70 95 43 29.97" 0 0.01 7
Fort McKavett  08:10 PM 74 73 99% NW22 27 mph 81° @ 0546 PM 91 70 99 46 30.01" 0 0.98 4
Friona 2NE  08:10 PM 73 65 80% SE710 15 mph 101° @ 0340 PM 79 61 99 60 30.12" 0 0.01 32
Gail 2ESE  08:10 PM 79 64 64% E69 17 mph 52° @ 0505 PM 87 66 94 49 30.01" 0 0.12 5
Goodlett 3W  08:10 PM 78 68 73% NE78 16 mph 21° @ 0540 PM 84 67 95 57 29.98" 0 0.01 4
Goodnight  08:10 PM 73 66 80% SE56 17 mph 43° @ 0425 AM 82 66 100 55 30.09" 0 0 6
Graham 5SSW  08:10 PM 78 64 65% NE710 22 mph 52° @ 0455 PM 83 65 98 52 30.03" 0 0.01 7
Guadalupe Mtns Natl Park  08:00 PM 71 60 69% N56 22 mph 59° @ 0249 PM 76 61 97 58 30.19" 0 0.01 9
Guthrie 10WSW  07:30 PM 83 65 57% NE69 17 mph 41° @ 0535 PM 85 67 96 53 29.99" 0 0.01 119
Happy 1E  08:10 PM 72 64 76% SE55 16 mph 109° @ 0831 AM 80 65 99 57 30.11" 0 0 16
Hart 3N  08:10 PM 71 66 84% SE78 14 mph 73° @ 0555 PM 79 62 99 68 30.10" 0 0.01 26
Haskell 1NW  08:10 PM 81 64 61% E56 15 mph 29° @ 0205 AM 85 69 100 53 29.97" 0 0.01 4
Hereford 2NW  08:10 PM 75 61 64% SE58 16 mph 153° @ 0605 PM 81 62 98 52 30.10" 0 0 27
Jayton 1SSE  08:10 PM 81 62 54% E810 18 mph 50° @ 0535 PM 86 66 96 47 29.99" 0 0.01 4
Junction 1SSW  08:10 PM 81 68 66% NE45 19 mph 126° @ 0458 PM 89 70 88 52 29.97" 0 0.02 1
Knox City 3NW  08:10 PM 81 68 66% NE56 15 mph 26° @ 0455 PM 86 71 91 50 29.97" 0 0 3
Lake Alan Henry 1NW  08:10 PM 80 64 57% NE68 20 mph 63° @ 0438 PM 86 67 92 46 30.00" 0 0.01 4
Lamesa 2SE  08:10 PM 79 67 67% E1013 22 mph 356° @ 0135 AM 84 67 96 53 30.04" 0 0.13 7
Levelland 4S  08:10 PM 74 66 78% N00 14 mph 105° @ 0650 PM 82 64 95 57 30.08" 0 0.01 18
Lomax 1SSE  08:10 PM 81 68 64% E911 17 mph 74° @ 0748 PM 87 69 94 50 30.01" 0 0.02 5
Lubbock 3WNW TTU  08:10 PM 75 65 75% E812 17 mph 74° @ 0500 PM 81 64 100 63 30.07" 0 0.01 16
McCamey 1SSW  08:10 PM 85 64 50% E79 31 mph 13° @ 1206 AM 89 71 89 43 29.99" 0 0.04 8
McLean 1E  08:10 PM 73 64 77% E79 17 mph 70° @ 0855 AM 80 66 99 57 30.05" 0 0 8
Memphis 1NE  08:10 PM 77 66 72% NE69 18 mph 46° @ 0845 AM 84 67 98 55 30.02" 0 0 5
Menard 2NW   08:10 PM 75 73 93% E22 22 mph 348° @ 0157 AM 89 69 94 51 29.99" 0 0.04 6
Mertzon 3NNE  08:10 PM 75 70 83% S23 30 mph 10° @ 1217 AM 90 69 97 47 30.00" 0 0.13 3
Morton 1ENE  08:10 PM 75 65 74% E68 20 mph 78° @ 0250 PM 82 65 96 55 30.09" 0 0 21
Muleshoe 2SSW  08:10 PM 73 65 80% E68 20 mph 102° @ 0450 PM 80 62 100 60 30.09" 0 0.01 29
New Home  08:10 PM 75 67 76% E68 16 mph 79° @ 0541 PM 82 66 97 57 30.07" 0 0 13
Northfield 1S  08:10 PM 78 68 74% E68 13 mph 47° @ 0355 PM 84 67 98 54 30.01" 0 0.01 4
O'Donnell 1N  08:10 PM 77 62 63% E811 19 mph 46° @ 0520 PM 83 65 100 50 30.05" 0 0.15 8
Odell 4ENE  08:10 PM 79 70 73% NE89 16 mph 20° @ 1006 AM 86 67 100 59 29.99" 0.01 0.02 3
Olton 6S  08:10 PM 73 65 79% E78 17 mph 84° @ 0605 PM 80 63 96 61 30.08" 0 0.01 20
Paducah 10SW  08:10 PM 79 68 72% E810 16 mph 42° @ 0355 PM 84 67 99 55 30.00" 0 0 3
Palo Duro Canyon SP Floor  08:10 PM 77 64 65% SE55 15 mph 142° @ 0539 PM 85 67 95 51 30.05" 0 0 10
Palo Duro Canyon State Park Rim  08:10 PM 74 62 66% SE911 17 mph 146° @ 0610 PM 82 66 96 54 30.10" 0 0 11
Pampa 2E  08:10 PM 72 64 79% E67 15 mph 126° @ 0350 PM 80 62 100 64 30.08" 0 0 9
Panhandle 1SSW  08:10 PM 72 67 83% SE66 16 mph 67° @ 0440 AM 81 65 99 56 30.10" 0 0 6
Plains 3N  08:10 PM 77 61 60% E56 18 mph 53° @ 0500 PM 84 63 99 50 30.08" 0 0 15
Plainview 1S  08:10 PM 74 65 78% E68 16 mph 81° @ 0625 PM 80 63 100 61 30.08" 0 0 16
Post 1NE  08:10 PM 77 65 68% NE55 17 mph 59° @ 0545 PM 85 67 93 51 30.02" 0 0.01 3
Ralls 1SE  08:10 PM 73 65 79% E45 16 mph 86° @ 0225 PM 79 65 96 62 30.07" 0 0 9
Reese Center  08:10 PM 73 65 77% E89 18 mph 78° @ 0540 PM 81 64 98 59 30.07" 0 0 15
Roaring Springs 3N  08:10 PM 75 66 77% NE67 15 mph 69° @ 0450 PM 81 66 100 64 30.04" 0 0.01 5
San Angelo 7NW  08:10 PM 82 63 53% E710 24 mph 354° @ 1205 AM 91 70 88 34 29.97" 0 0 4
Seagraves 1SW  08:10 PM 80 63 58% E612 15 mph 35° @ 0530 PM 86 64 96 44 30.05" 0 0 13
Seminole 2NNE  08:10 PM 80 62 57% E710 18 mph 80° @ 0350 PM 85 64 94 44 30.05" 0 0 18
Seymour 3NW  08:10 PM 82 70 71% NE34 22 mph 283° @ 1215 AM 88 73 93 52 29.95" 0 0.01 4
Sierra Blanca 1SSE  08:10 PM 78 66 66% NE88 44 mph 27° @ 0239 PM 89 66 85 37 30.10" 0 0.02 24
Silverton 7ESE  08:10 PM 72 65 82% SE45 15 mph 90° @ 0435 PM 79 63 96 57 30.08" 0 0.01 9
Slaton 2NE  08:10 PM 76 64 70% NE68 20 mph 55° @ 0600 PM 82 65 96 57 30.06" 0 0 12
Snyder 3E  08:10 PM 77 68 75% E68 18 mph 46° @ 0335 PM 85 66 100 61 30.01" 0 0.02 4
Snyder 3SSW  08:10 PM 78 68 70% NE57 19 mph 55° @ 0517 PM 86 68 96 54 30.01" 0 0.01 4
Spur 1W  08:10 PM 79 65 64% NE68 16 mph 38° @ 0435 PM 83 67 96 49 30.01" 0 0.01 6
St. Lawrence 5SW  08:10 PM 82 64 56% E811 22 mph 49° @ 1210 AM 86 68 95 46 30.01" 0 0.02 7
Stamford 5ESE  08:10 PM 81 68 65% NE67 19 mph 16° @ 0500 PM 86 70 98 49 29.97" 0 0 3
Sterling City 4WSW  08:10 PM 81 67 61% NE34 14 mph 356° @ 0351 PM 89 68 97 46 30.00" 0 0.06 3
Stinnett 1NNW  08:10 PM 74 65 73% E1012 18 mph 63° @ 0318 AM 83 64 99 52 30.08" 0 0 5
Sundown 8WSW  08:10 PM 75 65 73% E810 18 mph 68° @ 0405 PM 82 64 97 52 30.08" 0 0.02 16
Sweetwater 11SW   08:10 PM 78 68 71% NE1011 21 mph 24° @ 0544 PM 86 67 100 54 30.02" 0 0.03 4
Tahoka 3NNE  08:10 PM 74 65 73% E68 18 mph 70° @ 0454 PM 84 65 95 50 30.05" 0 0 8
Tarzan 2WNW  08:10 PM 79 69 70% E57 18 mph 54° @ 0602 PM 84 67 96 56 30.03" 0 0.10 10
Tatum NM 2SW  08:10 PM 74 63 69% E810 19 mph 90° @ 0635 PM 85 63 95 47 30.10" 0 0.01 19
Throckmorton 1SW  08:10 PM 81 69 67% NE55 14 mph 257° @ 1213 AM 87 71 98 54 29.97" 0 0.01 3
Tulia 2ENE  08:10 PM 71 65 86% SE79 15 mph 104° @ 0630 PM 79 63 100 68 30.09" 0 0.02 16
Turkey 2WSW  08:10 PM 77 67 73% E34 13 mph 75° @ 0520 PM 82 65 100 61 30.03" 0 0.01 6
Umbarger 3NNE  08:10 PM 72 65 76% SE89 16 mph 134° @ 0540 PM 80 63 99 56 30.11" 0 0.02 19
Vigo Park  08:10 PM 71 66 83% E78 15 mph 64° @ 0631 AM 80 64 98 59 30.10" 0 0 12
Wall 2E  08:10 PM 79 70 74% S67 37 mph 6° @ 1204 AM 90 70 97 46 29.98" 0 0.09 4
Weinert 2NNE  08:10 PM 81 68 64% E55 16 mph 3° @ 0436 PM 87 70 95 52 29.97" 0 0 3
Welch  08:10 PM 79 66 66% E810 16 mph 69° @ 0741 PM 87 66 98 45 30.06" 0 0.10 11
White River Lake 6NW  08:10 PM 77 62 64% NE79 17 mph 32° @ 0450 PM 83 66 95 54 30.03" 0 0.01 8
Wolfforth 6SSW  08:10 PM 74 66 80% E79 17 mph 77° @ 0540 PM 82 66 100 57 30.07" 0 0 14

West Texas Mesonet Home   Site Map/Menu  NWS Lubbock Soil Data  Daily Summary Page  24hr Precip  72hr Precip  Google Plot